Time;durP1;ratioP1;P1;durP2;ratioP2;P2;SDS_P1;SDS_P2;PMS_P1;PMS_P2;Temp;Humidity;BMP_temperature;BMP_pressure;BME280_temperature;BME280_humidity;BME280_pressure;Samples;Min_cycle;Max_cycle;Signal;HPM_P1;HPM_P2
2021/11/21 00:04:38;;;;;;;43.45;26.30;;;;;;;5.68;67.29;99876.56;10384030;28;20045;-66
2021/11/21 00:09:39;;;;;;;42.83;26.48;;;;;;;5.57;67.99;99874.41;10382702;28;20049;-66
2021/11/21 00:14:41;;;;;;;53.22;29.35;;;;;;;5.57;68.23;99870.06;10381637;28;20050;-65
2021/11/21 00:19:43;;;;;;;49.28;28.00;;;;;;;5.52;68.58;99855.59;10384109;28;20554;-66
2021/11/21 00:24:45;;;;;;;54.90;29.00;;;;;;;5.59;68.67;99846.66;10384411;28;20190;-65
2021/11/21 00:29:47;;;;;;;57.17;29.15;;;;;;;5.67;68.47;99852.38;10383813;28;20451;-66
2021/11/21 00:34:49;;;;;;;54.97;28.75;;;;;;;5.77;68.48;99838.13;10383815;28;20494;-66
2021/11/21 00:39:50;;;;;;;63.63;31.33;;;;;;;5.74;68.90;99824.44;10381841;28;20053;-66
2021/11/21 00:44:52;;;;;;;59.95;29.42;;;;;;;5.83;69.00;99824.03;10383430;28;20057;-66
2021/11/21 00:49:54;;;;;;;58.17;29.63;;;;;;;5.85;68.74;99817.88;10382240;28;20049;-65
2021/11/21 00:55:17;;;;;;;54.55;29.20;;;;;;;6.04;68.62;99802.38;10382949;28;20506;-65
2021/11/21 01:00:18;;;;;;;57.85;29.00;;;;;;;6.13;68.34;99797.59;10380152;28;20049;-66
2021/11/21 01:05:20;;;;;;;61.88;29.25;;;;;;;5.98;68.78;99795.66;10380462;28;20053;-66
2021/11/21 01:10:22;;;;;;;58.08;29.23;;;;;;;5.97;69.00;99791.41;10382908;28;20052;-65
2021/11/21 01:15:24;;;;;;;65.20;30.33;;;;;;;6.07;68.92;99786.63;10380753;28;20049;-65
2021/11/21 01:20:29;;;;;;;69.22;31.25;;;;;;;6.16;68.87;99788.84;10382350;28;20478;-65
2021/11/21 01:25:31;;;;;;;65.95;30.75;;;;;;;6.12;68.74;99782.94;10382696;28;20064;-65
2021/11/21 01:30:33;;;;;;;63.00;29.98;;;;;;;6.18;68.76;99782.69;10382822;28;20071;-65
2021/11/21 01:35:35;;;;;;;65.57;29.45;;;;;;;6.22;68.59;99765.22;10381737;28;20049;-65
2021/11/21 01:40:37;;;;;;;64.10;30.95;;;;;;;6.12;68.94;99764.75;10382096;28;20041;-65
2021/11/21 01:45:39;;;;;;;53.10;27.58;;;;;;;6.16;69.05;99747.31;10380078;28;20057;-65
2021/11/21 01:50:43;;;;;;;62.20;30.88;;;;;;;6.23;68.77;99735.72;10382652;28;20049;-65
2021/11/21 01:55:47;;;;;;;59.10;31.23;;;;;;;6.30;68.67;99724.19;10383146;28;20115;-65
2021/11/21 02:00:50;;;;;;;54.00;27.90;;;;;;;6.33;68.40;99711.88;10379511;28;20054;-65
2021/11/21 02:05:53;;;;;;;69.85;38.60;;;;;;;6.37;68.53;99711.75;10383128;28;20498;-65
2021/11/21 02:10:59;;;;;;;76.72;40.38;;;;;;;6.44;68.31;99703.63;10382376;28;20715;-65
2021/11/21 02:16:01;;;;;;;60.85;29.52;;;;;;;6.47;68.26;99697.44;10382769;28;20144;-65
2021/11/21 02:21:03;;;;;;;51.55;27.90;;;;;;;6.43;68.29;99701.09;10386532;28;20089;-65
2021/11/21 02:26:05;;;;;;;54.83;28.10;;;;;;;6.26;68.64;99689.72;10390153;28;20072;-65
2021/11/21 02:31:08;;;;;;;55.78;27.67;;;;;;;6.37;68.44;99676.22;10389340;28;20366;-65
2021/11/21 02:36:09;;;;;;;54.13;28.17;;;;;;;6.32;68.49;99676.47;10389147;28;20050;-65
2021/11/21 02:41:12;;;;;;;52.38;26.95;;;;;;;6.28;68.81;99671.47;10388852;28;20056;-65
2021/11/21 02:46:16;;;;;;;50.70;26.80;;;;;;;6.34;68.58;99673.78;10388508;28;20095;-65
2021/11/21 02:51:18;;;;;;;52.72;26.70;;;;;;;6.44;68.33;99671.59;10388169;28;20057;-65
2021/11/21 02:56:21;;;;;;;51.92;27.38;;;;;;;6.43;68.43;99662.13;10390119;28;20439;-65
2021/11/21 03:01:25;;;;;;;51.55;26.48;;;;;;;6.43;68.42;99644.75;10389074;28;20057;-65
2021/11/21 03:06:28;;;;;;;55.55;27.75;;;;;;;6.45;68.39;99635.16;10395513;28;20404;-65
2021/11/21 03:11:33;;;;;;;48.03;26.10;;;;;;;6.56;68.28;99635.47;10396436;28;20137;-66
2021/11/21 03:16:35;;;;;;;54.75;27.35;;;;;;;6.59;68.03;99630.16;10396111;28;20132;-65
2021/11/21 03:21:37;;;;;;;47.55;26.40;;;;;;;6.59;68.00;99627.56;10394466;28;20405;-64
2021/11/21 03:26:38;;;;;;;54.25;27.95;;;;;;;6.66;67.89;99630.69;10396274;28;20138;-64
2021/11/21 03:31:40;;;;;;;51.30;26.20;;;;;;;6.59;67.90;99622.38;10391921;28;20417;-65
2021/11/21 03:36:42;;;;;;;55.28;26.75;;;;;;;6.45;68.13;99626.53;10395621;28;20166;-64
2021/11/21 03:41:44;;;;;;;54.70;28.50;;;;;;;6.46;68.29;99623.84;10395375;28;20067;-65
2021/11/21 03:46:46;;;;;;;52.67;26.95;;;;;;;6.55;68.06;99622.56;10394917;28;20049;-64
2021/11/21 03:51:48;;;;;;;56.97;28.08;;;;;;;6.48;68.24;99611.63;10394777;28;20275;-64
2021/11/21 03:56:49;;;;;;;57.65;28.92;;;;;;;6.45;68.38;99606.56;10395006;28;20052;-64
2021/11/21 04:01:51;;;;;;;60.17;30.33;;;;;;;6.49;68.24;99602.09;10393887;28;20456;-65
2021/11/21 04:06:53;;;;;;;54.30;27.38;;;;;;;6.51;68.21;99595.88;10388739;28;20057;-65
2021/11/21 04:11:55;;;;;;;50.40;27.67;;;;;;;6.51;68.22;99590.69;10387035;28;20049;-65
2021/11/21 04:16:56;;;;;;;56.60;29.02;;;;;;;6.50;68.30;99588.16;10387562;28;20058;-65
2021/11/21 04:21:58;;;;;;;55.45;27.02;;;;;;;6.55;68.00;99579.22;10386833;28;20052;-65
2021/11/21 04:27:01;;;;;;;50.15;27.05;;;;;;;6.57;68.08;99571.38;10386858;28;20080;-65
2021/11/21 04:32:03;;;;;;;54.08;28.25;;;;;;;6.60;67.91;99564.28;10386235;28;20049;-65
2021/11/21 04:37:05;;;;;;;49.10;26.30;;;;;;;6.64;67.80;99570.16;10385108;28;20111;-64
2021/11/21 04:42:07;;;;;;;48.92;26.83;;;;;;;6.61;67.88;99570.31;10385712;28;20270;-65
2021/11/21 04:47:12;;;;;;;46.63;25.77;;;;;;;6.66;67.87;99568.31;10386285;28;20049;-65
2021/11/21 04:52:14;;;;;;;49.47;26.83;;;;;;;6.66;67.62;99556.16;10386072;28;20055;-65
2021/11/21 04:57:17;;;;;;;45.15;24.88;;;;;;;6.58;67.82;99549.66;10387134;28;20060;-65
2021/11/21 05:02:21;;;;;;;44.88;24.67;;;;;;;6.53;67.85;99546.47;10385604;28;20068;-65
2021/11/21 05:07:23;;;;;;;41.40;23.60;;;;;;;6.59;68.00;99540.97;10385774;28;20488;-64
2021/11/21 05:12:25;;;;;;;38.03;22.85;;;;;;;6.66;67.62;99542.34;10385156;28;20398;-65
2021/11/21 05:17:27;;;;;;;38.00;22.33;;;;;;;6.69;67.36;99531.78;10385913;28;20144;-65
2021/11/21 05:22:29;;;;;;;41.35;22.40;;;;;;;6.70;67.32;99523.06;10385538;28;20055;-64
2021/11/21 05:27:31;;;;;;;32.30;20.20;;;;;;;6.71;67.01;99527.38;10385653;28;20405;-65
2021/11/21 05:32:33;;;;;;;32.03;19.67;;;;;;;6.66;66.96;99530.19;10385079;28;20052;-65
2021/11/21 05:37:36;;;;;;;31.95;19.20;;;;;;;6.71;66.91;99519.56;10385470;28;20054;-64
2021/11/21 05:42:38;;;;;;;28.75;17.65;;;;;;;6.68;66.94;99517.09;10385421;28;20132;-64
2021/11/21 05:47:41;;;;;;;29.40;18.45;;;;;;;6.57;66.93;99512.44;10384921;28;20064;-65
2021/11/21 05:52:46;;;;;;;29.65;17.30;;;;;;;6.56;67.12;99513.38;10383714;28;20045;-64
2021/11/21 05:57:50;;;;;;;26.10;16.27;;;;;;;6.60;66.87;99516.66;10392047;28;20133;-64
2021/11/21 06:02:53;;;;;;;27.98;16.92;;;;;;;6.61;66.94;99513.16;10391895;28;20064;-64
2021/11/21 06:07:55;;;;;;;25.52;16.05;;;;;;;6.54;66.79;99512.63;10390501;28;20136;-65
2021/11/21 06:12:56;;;;;;;46.55;29.55;;;;;;;6.57;66.75;99511.63;10392032;28;20076;-65
2021/11/21 06:17:58;;;;;;;23.90;15.27;;;;;;;6.51;66.60;99506.75;10391973;28;20061;-65
2021/11/21 06:23:00;;;;;;;26.92;16.02;;;;;;;6.52;66.46;99504.06;10391721;28;20060;-65
2021/11/21 06:28:02;;;;;;;28.42;15.75;;;;;;;6.55;66.43;99503.88;10391995;28;20146;-65
2021/11/21 06:33:05;;;;;;;26.33;16.27;;;;;;;6.52;66.37;99504.06;10391579;28;20056;-65
2021/11/21 06:38:07;;;;;;;27.45;16.60;;;;;;;6.47;66.39;99500.00;10391139;28;20529;-65
2021/11/21 06:43:09;;;;;;;28.83;17.38;;;;;;;6.49;66.43;99493.00;10390483;28;20147;-65
2021/11/21 06:48:12;;;;;;;28.85;16.17;;;;;;;6.41;66.47;99495.13;10389473;28;20080;-64
2021/11/21 06:53:15;;;;;;;27.85;16.67;;;;;;;6.48;66.32;99486.09;10390204;28;20045;-64
2021/11/21 06:58:17;;;;;;;26.63;16.75;;;;;;;6.47;66.04;99480.06;10390291;28;20513;-65
2021/11/21 07:03:18;;;;;;;29.75;17.13;;;;;;;6.48;66.08;99486.09;10390463;28;20460;-65
2021/11/21 07:08:20;;;;;;;27.42;18.00;;;;;;;6.44;66.42;99492.38;10390174;28;20667;-65
2021/11/21 07:13:22;;;;;;;26.88;16.27;;;;;;;6.54;66.27;99489.22;10389088;28;20502;-65
2021/11/21 07:18:24;;;;;;;29.33;16.52;;;;;;;6.52;66.51;99492.81;10388583;28;20057;-65
2021/11/21 07:23:26;;;;;;;27.70;17.77;;;;;;;6.58;66.68;99489.91;10390122;28;20132;-64
2021/11/21 07:28:27;;;;;;;28.23;17.25;;;;;;;6.59;66.53;99491.59;10389186;28;20763;-65
2021/11/21 07:33:29;;;;;;;33.58;19.60;;;;;;;6.64;66.60;99487.00;10389020;28;20123;-64
2021/11/21 07:38:31;;;;;;;28.67;17.35;;;;;;;6.77;66.35;99494.13;10388814;28;20772;-64
2021/11/21 07:43:33;;;;;;;31.15;18.35;;;;;;;6.93;66.15;99488.97;10388573;28;20076;-65
2021/11/21 07:48:35;;;;;;;25.67;15.85;;;;;;;6.96;65.84;99491.38;10386039;28;20060;-65
2021/11/21 07:53:36;;;;;;;36.50;21.73;;;;;;;6.95;66.15;99489.72;10388287;28;20049;-65
2021/11/21 07:58:39;;;;;;;29.70;17.83;;;;;;;6.83;66.73;99491.19;10387655;28;20046;-64
2021/11/21 08:03:42;;;;;;;36.28;23.33;;;;;;;6.85;66.76;99485.91;10386477;28;20041;-64
2021/11/21 08:08:43;;;;;;;30.98;18.95;;;;;;;6.85;66.99;99496.31;10386846;28;20399;-64
2021/11/21 08:13:45;;;;;;;33.05;17.70;;;;;;;6.92;66.72;99500.25;10387495;28;20050;-64
2021/11/21 08:18:47;;;;;;;31.75;18.08;;;;;;;6.86;67.00;99497.97;10386441;28;20413;-64
2021/11/21 08:23:48;;;;;;;33.03;18.02;;;;;;;6.92;67.18;99500.25;10386939;28;20063;-64
2021/11/21 08:28:50;;;;;;;30.65;17.88;;;;;;;6.93;67.02;99504.56;10386054;28;20052;-64
2021/11/21 08:33:52;;;;;;;30.05;16.38;;;;;;;6.89;67.22;99510.84;10401740;28;20057;-63
2021/11/21 08:38:53;;;;;;;30.00;16.05;;;;;;;6.80;67.47;99509.53;10384558;28;20141;-64
2021/11/21 08:43:56;;;;;;;28.15;16.33;;;;;;;6.94;67.48;99511.41;10386168;28;20051;-64
2021/11/21 08:48:58;;;;;;;29.05;15.57;;;;;;;7.01;67.42;99508.44;10386122;28;20058;-64
2021/11/21 08:54:00;;;;;;;28.10;15.55;;;;;;;7.16;67.26;99507.63;10386116;28;20049;-64
2021/11/21 08:59:05;;;;;;;28.48;14.80;;;;;;;7.31;67.21;99494.72;10385317;28;20091;-63
2021/11/21 09:04:06;;;;;;;28.55;15.02;;;;;;;7.56;66.92;99490.75;10384546;28;20088;-64
2021/11/21 09:09:08;;;;;;;28.83;14.88;;;;;;;7.63;66.76;99494.69;10385303;28;20315;-64
2021/11/21 09:14:11;;;;;;;22.52;12.95;;;;;;;7.81;66.34;99496.28;10385448;28;20068;-64
2021/11/21 09:19:12;;;;;;;18.45;11.75;;;;;;;7.95;65.96;99487.72;10385200;28;20050;-64
2021/11/21 09:24:14;;;;;;;18.00;11.20;;;;;;;7.92;65.72;99493.91;10384814;28;20405;-64
2021/11/21 09:29:16;;;;;;;19.00;11.55;;;;;;;7.95;65.61;99488.56;10387575;28;20038;-64
2021/11/21 09:34:18;;;;;;;16.08;10.73;;;;;;;7.95;65.64;99472.94;10393827;28;20688;-64
2021/11/21 09:39:19;;;;;;;15.65;10.35;;;;;;;8.39;64.97;99474.78;10393347;28;20053;-64
2021/11/21 09:44:23;;;;;;;18.42;11.55;;;;;;;8.53;64.05;99460.03;10393344;28;20083;-64
2021/11/21 09:49:27;;;;;;;18.45;11.18;;;;;;;8.60;64.42;99457.91;10392945;28;20516;-64
2021/11/21 09:54:29;;;;;;;16.30;10.30;;;;;;;8.69;64.14;99449.50;10393196;28;20494;-64
2021/11/21 09:59:53;;;;;;;15.27;10.07;;;;;;;8.68;63.29;99455.66;10392178;28;20140;-64
2021/11/21 10:04:56;;;;;;;15.35;9.68;;;;;;;8.90;63.54;99448.22;10392153;28;20382;-65
2021/11/21 10:09:59;;;;;;;15.63;9.20;;;;;;;8.98;63.21;99440.78;10391789;28;20441;-64
2021/11/21 10:15:09;;;;;;;14.02;9.07;;;;;;;9.07;62.87;99437.63;10392033;28;20071;-64
2021/11/21 10:20:11;;;;;;;11.07;8.50;;;;;;;9.00;62.84;99444.13;10391219;28;20045;-65
2021/11/21 10:25:15;;;;;;;12.90;8.57;;;;;;;9.01;62.73;99439.75;10391841;28;20172;-64
2021/11/21 10:30:16;;;;;;;12.60;8.90;;;;;;;8.84;63.25;99439.03;10390744;28;20413;-64
2021/11/21 10:35:21;;;;;;;13.05;8.38;;;;;;;8.93;62.82;99432.41;10391195;28;20479;-65
2021/11/21 10:40:23;;;;;;;13.90;8.95;;;;;;;8.94;62.90;99438.44;10388922;28;20053;-65
2021/11/21 10:45:26;;;;;;;13.25;8.30;;;;;;;8.96;62.56;99440.03;10391226;28;20049;-65
2021/11/21 10:50:30;;;;;;;13.85;7.97;;;;;;;8.83;62.50;99429.50;10390925;28;20089;-65
2021/11/21 10:55:32;;;;;;;11.25;7.75;;;;;;;8.67;63.12;99433.13;10388631;28;20057;-65
2021/11/21 11:00:33;;;;;;;10.00;7.60;;;;;;;8.88;62.76;99425.78;10389684;28;20425;-65
2021/11/21 11:05:35;;;;;;;11.45;7.70;;;;;;;9.01;62.48;99417.13;10389891;28;20057;-65
2021/11/21 11:10:38;;;;;;;11.75;8.15;;;;;;;9.05;62.37;99416.03;10389236;28;20057;-65
2021/11/21 11:15:45;;;;;;;10.75;7.50;;;;;;;9.07;62.02;99416.75;10389445;28;20140;-65
2021/11/21 11:20:50;;;;;;;11.68;7.20;;;;;;;9.00;62.33;99412.84;10388395;28;20050;-65
2021/11/21 11:25:58;;;;;;;10.73;7.50;;;;;;;8.94;62.42;99408.00;10389327;28;20053;-66
2021/11/21 11:31:19;;;;;;;12.20;7.30;;;;;;;8.96;62.55;99411.34;10387518;28;20128;-66
2021/11/21 11:36:26;;;;;;;9.80;7.03;;;;;;;9.04;62.40;99409.09;10389116;28;20046;-65
2021/11/21 11:41:29;;;;;;;10.57;7.30;;;;;;;8.89;62.52;99409.22;10388704;28;20498;-66
2021/11/21 11:46:33;;;;;;;10.52;6.95;;;;;;;8.93;62.51;99406.34;10387519;28;20445;-65
2021/11/21 11:51:38;;;;;;;11.40;7.82;;;;;;;8.86;62.83;99402.41;10387280;28;20050;-65
2021/11/21 11:56:48;;;;;;;18.33;12.82;;;;;;;8.73;63.19;99411.91;10387459;28;20075;-66
2021/11/21 12:01:50;;;;;;;13.70;10.45;;;;;;;8.68;63.26;99409.59;10387957;28;20049;-65
2021/11/21 12:06:56;;;;;;;13.20;7.22;;;;;;;8.51;63.89;99399.31;10387384;28;20053;-65
2021/11/21 12:12:06;;;;;;;15.68;10.30;;;;;;;8.41;64.30;99402.56;10388303;28;20072;-66
2021/11/21 12:17:10;;;;;;;;;;;;;;;8.16;65.30;99397.94;10387542;28;20049;-65
2021/11/21 12:22:24;;;;;;;14.57;9.48;;;;;;;8.31;64.97;99399.69;10386421;28;20025;-65
2021/11/21 12:27:28;;;;;;;14.40;8.60;;;;;;;8.43;64.74;99392.88;10385170;28;20052;-65
2021/11/21 12:32:31;;;;;;;12.73;7.50;;;;;;;8.53;64.42;99391.41;10386891;28;20041;-66
2021/11/21 12:37:34;;;;;;;11.15;7.28;;;;;;;8.47;64.60;99387.41;10384522;28;20045;-65
2021/11/21 12:42:38;;;;;;;11.02;7.55;;;;;;;8.44;64.66;99387.63;10386771;28;20437;-65
2021/11/21 12:47:42;;;;;;;11.57;6.35;;;;;;;8.49;64.40;99385.56;10385747;28;20087;-65
2021/11/21 12:53:19;;;;;;;11.00;6.85;;;;;;;8.37;64.75;99385.44;10386518;28;20052;-63
2021/11/21 12:58:24;;;;;;;9.50;7.25;;;;;;;8.43;64.56;99383.31;10377578;28;20052;-70
2021/11/21 13:03:27;;;;;;;13.82;8.93;;;;;;;8.33;64.84;99386.56;10383601;28;20053;-70
2021/11/21 13:08:32;;;;;;;11.07;7.80;;;;;;;8.42;64.75;99383.41;10383515;28;20068;-71
2021/11/21 13:13:36;;;;;;;9.25;5.97;;;;;;;8.50;64.39;99381.19;10383643;28;20476;-71
2021/11/21 13:18:38;;;;;;;7.80;5.43;;;;;;;8.46;64.47;99377.94;10385185;28;20549;-71
2021/11/21 13:23:41;;;;;;;8.85;5.00;;;;;;;8.41;64.44;99372.16;10385814;28;20124;-71
2021/11/21 13:28:49;;;;;;;7.45;4.82;;;;;;;8.52;64.36;99374.97;10383320;28;20395;-71
2021/11/21 13:33:56;;;;;;;6.38;4.40;;;;;;;8.45;64.39;99383.22;10384820;28;20593;-71
2021/11/21 13:39:00;;;;;;;7.90;4.40;;;;;;;8.45;64.56;99375.41;10384788;28;20071;-71
2021/11/21 13:44:06;;;;;;;6.07;3.85;;;;;;;8.48;64.35;99380.44;10383770;28;20063;-70
2021/11/21 13:49:23;;;;;;;6.82;4.10;;;;;;;8.39;64.38;99384.44;10384746;28;20215;-70
2021/11/21 13:54:27;;;;;;;15.82;10.50;;;;;;;8.39;64.43;99378.38;10384737;28;20079;-70
2021/11/21 13:59:40;;;;;;;9.93;6.00;;;;;;;8.24;64.78;99380.09;10384383;28;20050;-71
2021/11/21 14:04:42;;;;;;;8.52;4.30;;;;;;;8.30;64.80;99373.72;10382572;28;20137;-69
2021/11/21 14:09:54;;;;;;;8.82;4.18;;;;;;;8.20;65.17;99385.63;10384313;28;20228;-72
2021/11/21 14:15:11;;;;;;;7.30;4.40;;;;;;;8.06;65.64;99390.75;10384225;28;20432;-69
2021/11/21 14:20:32;;;;;;;7.90;5.35;;;;;;;8.02;65.91;99392.69;10390107;28;20236;-72
2021/11/21 14:25:35;;;;;;;;;;;;;;;7.67;66.86;99401.69;10390904;28;20362;-71
2021/11/21 14:30:46;;;;;;;17.65;11.63;;;;;;;7.78;66.74;99402.75;10389856;28;19925;-71
2021/11/21 14:35:51;;;;;;;8.02;4.93;;;;;;;7.80;66.47;99408.69;10385580;28;20060;-71
2021/11/21 14:41:09;;;;;;;9.10;5.38;;;;;;;7.88;66.92;99408.25;10389781;28;20068;-71
2021/11/21 14:46:14;;;;;;;11.93;8.45;;;;;;;7.85;66.75;99409.25;10387682;28;20134;-72
2021/11/21 14:51:18;;;;;;;10.77;7.60;;;;;;;7.74;67.30;99411.66;10390116;28;20042;-72
2021/11/21 14:56:21;;;;;;;9.52;6.25;;;;;;;7.82;67.40;99411.22;10390127;28;20041;-71
2021/11/21 15:01:31;;;;;;;15.23;11.18;;;;;;;7.80;67.89;99413.06;10389073;28;20494;-72
2021/11/21 15:06:34;;;;;;;8.87;6.30;;;;;;;7.83;67.59;99420.72;10388814;28;20053;-72
2021/11/21 15:11:39;;;;;;;7.25;5.32;;;;;;;7.87;67.70;99428.25;10387050;28;20048;-72
2021/11/21 15:16:41;;;;;;;7.72;4.07;;;;;;;7.86;67.75;99421.38;10388147;28;20089;-72
2021/11/21 15:21:42;;;;;;;8.23;5.88;;;;;;;7.91;67.75;99423.72;10389135;28;20406;-72
2021/11/21 15:26:47;;;;;;;7.20;4.32;;;;;;;7.84;67.84;99420.63;10388278;28;20064;-72
2021/11/21 15:31:48;;;;;;;17.10;7.95;;;;;;;7.85;67.88;99411.88;10387697;28;20449;-71
2021/11/21 15:36:51;;;;;;;7.55;4.20;;;;;;;7.82;67.76;99409.44;10387189;28;20155;-72
2021/11/21 15:41:52;;;;;;;11.15;6.30;;;;;;;7.80;67.93;99416.50;10388213;28;20068;-72
2021/11/21 15:46:54;;;;;;;7.55;4.18;;;;;;;7.91;67.75;99421.97;10387784;28;20110;-72
2021/11/21 15:51:56;;;;;;;8.40;5.05;;;;;;;7.91;67.70;99418.50;10387323;28;20049;-71
2021/11/21 15:57:00;;;;;;;6.50;4.78;;;;;;;7.86;67.82;99430.94;10386186;28;20372;-72
2021/11/21 16:02:04;;;;;;;8.52;6.63;;;;;;;7.84;67.83;99432.78;10386428;28;20485;-72
2021/11/21 16:07:10;;;;;;;8.38;4.93;;;;;;;7.89;67.91;99438.59;10386540;28;20049;-71
2021/11/21 16:12:12;;;;;;;9.70;6.20;;;;;;;7.84;67.79;99448.41;10387749;28;20255;-72
2021/11/21 16:17:16;;;;;;;11.75;7.88;;;;;;;7.87;67.54;99443.03;10387384;28;20221;-64
2021/11/21 16:22:17;;;;;;;10.23;6.55;;;;;;;7.90;67.80;99445.44;10385802;28;20085;-64
2021/11/21 16:27:19;;;;;;;9.32;5.93;;;;;;;7.92;67.64;99447.06;10385686;28;20049;-64
2021/11/21 16:32:21;;;;;;;7.82;6.07;;;;;;;7.92;67.81;99452.25;10384716;28;20053;-65
2021/11/21 16:37:23;;;;;;;10.80;5.10;;;;;;;7.88;67.84;99462.94;10383898;28;20442;-64
2021/11/21 16:42:24;;;;;;;11.30;5.78;;;;;;;7.88;67.88;99468.97;10386882;28;20136;-64
2021/11/21 16:47:26;;;;;;;6.93;5.07;;;;;;;7.88;67.82;99482.00;10386028;28;20136;-64
2021/11/21 16:52:28;;;;;;;10.02;6.63;;;;;;;7.82;67.85;99482.34;10385374;28;20075;-64
2021/11/21 16:57:30;;;;;;;6.85;4.80;;;;;;;7.71;68.26;99483.88;10384959;28;20041;-65
2021/11/21 17:02:32;;;;;;;7.40;5.65;;;;;;;7.76;68.09;99487.88;10385086;28;20053;-64
2021/11/21 17:07:34;;;;;;;9.60;5.75;;;;;;;7.78;67.95;99486.03;10384484;28;20168;-64
2021/11/21 17:12:35;;;;;;;8.80;6.97;;;;;;;7.80;67.93;99494.59;10384682;28;20943;-64
2021/11/21 17:17:37;;;;;;;10.52;7.40;;;;;;;7.76;68.18;99507.88;10385308;28;20100;-64
2021/11/21 17:22:40;;;;;;;17.10;7.53;;;;;;;7.78;67.84;99506.88;10374603;28;20532;-63
2021/11/21 17:27:43;;;;;;;12.43;7.60;;;;;;;7.68;68.18;99508.28;10377681;28;20404;-64
2021/11/21 17:32:45;;;;;;;12.18;7.75;;;;;;;7.71;68.22;99512.50;10382801;28;20053;-64
2021/11/21 17:37:48;;;;;;;16.00;10.95;;;;;;;7.74;68.04;99520.13;10381823;28;20049;-63
2021/11/21 17:42:50;;;;;;;12.63;8.82;;;;;;;7.80;67.94;99520.63;10382753;28;20050;-65
2021/11/21 17:47:52;;;;;;;13.45;9.15;;;;;;;7.79;67.98;99533.75;10371069;28;20469;-65
2021/11/21 17:52:53;;;;;;;13.55;8.73;;;;;;;7.75;68.08;99540.84;10388034;28;20137;-65
2021/11/21 17:57:55;;;;;;;13.23;8.80;;;;;;;7.79;67.97;99544.97;10389428;28;20617;-65
2021/11/21 18:02:57;;;;;;;19.23;10.45;;;;;;;7.82;67.77;99549.19;10390524;28;20049;-65
2021/11/21 18:07:59;;;;;;;11.93;8.10;;;;;;;7.81;67.64;99555.31;10388618;28;20057;-63
2021/11/21 18:13:01;;;;;;;13.68;9.35;;;;;;;7.77;67.87;99561.63;10390225;28;20307;-64
2021/11/21 18:18:03;;;;;;;18.45;11.55;;;;;;;7.78;67.78;99556.31;10387447;28;20064;-64
2021/11/21 18:23:05;;;;;;;18.08;12.05;;;;;;;7.76;67.78;99559.94;10388121;28;20516;-63
2021/11/21 18:28:08;;;;;;;24.02;14.75;;;;;;;7.78;67.75;99565.88;10387759;28;20052;-62
2021/11/21 18:33:10;;;;;;;23.77;13.15;;;;;;;7.79;67.71;99578.00;10388547;28;20045;-63
2021/11/21 18:38:12;;;;;;;24.63;14.25;;;;;;;7.77;67.61;99580.66;10389569;28;20421;-63
2021/11/21 18:43:13;;;;;;;17.27;12.15;;;;;;;7.64;68.03;99584.84;10388365;28;20045;-64
2021/11/21 18:48:16;;;;;;;20.23;12.20;;;;;;;7.66;67.90;99585.63;10388232;28;20060;-64
2021/11/21 18:53:19;;;;;;;25.40;15.32;;;;;;;7.59;68.00;99586.84;10382438;28;20053;-64
2021/11/21 18:58:21;;;;;;;17.25;12.48;;;;;;;7.58;68.09;99593.00;10388221;28;20051;-64
2021/11/21 19:03:23;;;;;;;19.63;13.00;;;;;;;7.62;67.95;99602.31;10387515;28;20044;-64
2021/11/21 19:08:25;;;;;;;24.52;14.40;;;;;;;7.62;67.88;99609.28;10384571;28;20565;-63
2021/11/21 19:13:27;;;;;;;22.90;14.57;;;;;;;7.62;68.02;99617.09;10383149;28;20056;-63
2021/11/21 19:18:29;;;;;;;29.52;16.33;;;;;;;7.57;67.89;99617.31;10378871;28;20807;-63
2021/11/21 19:23:30;;;;;;;24.65;15.50;;;;;;;7.55;68.16;99631.34;10387335;28;20592;-63
2021/11/21 19:28:32;;;;;;;24.85;14.38;;;;;;;7.55;68.06;99633.97;10385133;28;20071;-63
2021/11/21 19:33:34;;;;;;;25.55;14.18;;;;;;;7.55;67.91;99639.16;10384696;28;20049;-63
2021/11/21 19:38:43;;;;;;;27.88;14.90;;;;;;;7.49;68.03;99645.50;10387260;28;20132;-63
2021/11/21 19:43:47;;;;;;;;;;;;;;;7.25;68.32;99651.97;10387481;28;20389;-63
2021/11/21 19:48:52;;;;;;;27.38;17.13;;;;;;;7.50;67.99;99661.97;10384284;28;20411;-64
2021/11/21 19:53:55;;;;;;;30.17;15.75;;;;;;;7.50;67.74;99662.81;10376806;28;20491;-63
2021/11/21 19:58:57;;;;;;;20.55;12.80;;;;;;;7.48;67.94;99669.84;10384936;28;20433;-64
2021/11/21 20:03:59;;;;;;;27.30;15.50;;;;;;;7.36;67.96;99667.88;10385700;28;20521;-63
2021/11/21 20:09:01;;;;;;;23.80;15.95;;;;;;;7.33;67.94;99672.38;10386166;28;20060;-64
2021/11/21 20:14:03;;;;;;;27.70;15.38;;;;;;;7.31;67.97;99676.81;10384956;28;20059;-64
2021/11/21 20:19:05;;;;;;;24.05;13.77;;;;;;;7.29;68.23;99682.09;10385054;28;20060;-65
2021/11/21 20:24:07;;;;;;;21.92;13.55;;;;;;;7.34;67.89;99677.53;10383722;28;20053;-64
2021/11/21 20:29:09;;;;;;;25.75;13.73;;;;;;;7.41;67.65;99686.69;10378824;28;20366;-64
2021/11/21 20:39:31;;;;;;;27.85;16.70;;;;;;;7.32;67.84;99700.16;10385026;28;20045;-64
2021/11/21 20:44:32;;;;;;;34.05;17.30;;;;;;;7.25;67.89;99700.53;10383921;28;20128;-64
2021/11/21 20:49:34;;;;;;;26.45;15.38;;;;;;;7.23;68.06;99705.81;10385677;28;20164;-64
2021/11/21 20:54:36;;;;;;;30.40;17.15;;;;;;;7.25;68.01;99709.19;10384425;28;20452;-65
2021/11/21 20:59:38;;;;;;;24.65;14.02;;;;;;;7.24;67.85;99706.66;10382971;28;20482;-64
2021/11/21 21:04:40;;;;;;;27.05;14.75;;;;;;;7.21;67.99;99718.06;10383122;28;20494;-64
2021/11/21 21:09:42;;;;;;;28.33;14.23;;;;;;;7.20;67.97;99716.38;10383706;28;20629;-65
2021/11/21 21:14:45;;;;;;;22.85;12.63;;;;;;;7.19;67.86;99727.69;10383218;28;20438;-65
2021/11/21 21:19:47;;;;;;;32.72;16.90;;;;;;;7.10;67.97;99730.75;10383094;28;20072;-64
2021/11/21 21:24:50;;;;;;;24.95;15.25;;;;;;;6.95;68.25;99723.69;10386420;28;20049;-64
2021/11/21 21:29:52;;;;;;;29.25;15.10;;;;;;;6.98;68.38;99732.19;10391815;28;20069;-64
2021/11/21 21:34:55;;;;;;;27.83;15.23;;;;;;;7.02;68.23;99732.91;10389869;28;20795;-65
2021/11/21 21:39:57;;;;;;;33.95;18.10;;;;;;;6.97;68.15;99734.84;10391814;28;20054;-65
2021/11/21 21:44:59;;;;;;;34.58;19.65;;;;;;;6.87;68.29;99738.81;10391971;28;20053;-64
2021/11/21 21:50:21;;;;;;;28.92;16.25;;;;;;;6.89;68.45;99739.59;10391269;28;20244;-64
2021/11/21 21:55:24;;;;;;;35.47;17.75;;;;;;;6.96;68.17;99738.34;10390978;28;20551;-64
2021/11/21 22:00:26;;;;;;;36.85;18.08;;;;;;;6.92;68.15;99747.22;10390741;28;20042;-64
2021/11/21 22:05:29;;;;;;;35.05;17.88;;;;;;;6.87;68.19;99755.25;10389029;28;20060;-65
2021/11/21 22:11:22;;;;;;;33.40;17.13;;;;;;;6.80;68.52;99759.06;10388880;28;20059;-65
2021/11/21 22:16:25;;;;;;;33.85;18.42;;;;;;;6.82;68.37;99766.75;10390944;28;20103;-65
2021/11/21 22:21:27;;;;;;;32.72;16.90;;;;;;;6.80;68.21;99773.78;10390309;28;20212;-65
2021/11/21 22:26:29;;;;;;;40.17;19.10;;;;;;;6.75;68.18;99778.38;10388578;28;20045;-65
2021/11/21 22:31:31;;;;;;;30.48;15.63;;;;;;;6.76;68.36;99783.50;10389658;28;20077;-65
2021/11/21 22:36:33;;;;;;;37.30;17.48;;;;;;;6.73;68.30;99795.81;10388726;28;20080;-65
2021/11/21 22:41:38;;;;;;;25.15;15.23;;;;;;;6.75;68.40;99796.56;10388919;28;20100;-64
2021/11/21 22:46:40;;;;;;;29.70;14.05;;;;;;;6.73;68.24;99803.59;10389622;28;20137;-64
2021/11/21 22:51:42;;;;;;;33.95;16.13;;;;;;;6.71;68.22;99803.69;10388501;28;20207;-64
2021/11/21 22:56:44;;;;;;;29.50;14.57;;;;;;;6.65;68.28;99816.09;10387566;28;20498;-63
2021/11/21 23:01:46;;;;;;;29.08;15.00;;;;;;;6.58;68.55;99825.94;10388186;28;20537;-64
2021/11/21 23:06:48;;;;;;;43.13;17.75;;;;;;;6.54;68.15;99826.13;10388673;28;20061;-64
2021/11/21 23:11:50;;;;;;;33.45;15.55;;;;;;;6.50;68.40;99829.78;10387920;28;20046;-63
2021/11/21 23:16:52;;;;;;;34.65;16.92;;;;;;;6.42;68.65;99839.66;10386651;28;20041;-64
2021/11/21 23:21:54;;;;;;;27.42;14.07;;;;;;;6.35;68.69;99846.88;10387549;28;20046;-63
2021/11/21 23:26:55;;;;;;;41.10;16.75;;;;;;;6.32;68.56;99840.09;10387488;28;20049;-64
2021/11/21 23:31:58;;;;;;;37.75;17.77;;;;;;;6.23;68.61;99855.16;10387387;28;20050;-63